createdAt,value
2023-02-06T00:01:50.594Z,101620.72
2023-02-06T00:04:18.176Z,101615.47
2023-02-06T00:06:46.495Z,101606.84
2023-02-06T00:09:13.883Z,101600.34
2023-02-06T00:11:41.230Z,101610.75
2023-02-06T00:14:08.477Z,101589.84
2023-02-06T00:16:36.663Z,101603.63
2023-02-06T00:19:04.363Z,101604.34
2023-02-06T00:21:31.962Z,101615.91
2023-02-06T00:24:02.571Z,101602.03
2023-02-06T00:26:31.489Z,101597.50
2023-02-06T00:28:58.800Z,101592.91
2023-02-06T00:31:26.306Z,101601.63
2023-02-06T00:33:53.501Z,101598.06
2023-02-06T00:36:20.864Z,101589.25
2023-02-06T00:38:48.123Z,101586.44
2023-02-06T00:41:15.748Z,101589.06
2023-02-06T00:43:43.584Z,101589.25
2023-02-06T00:46:11.890Z,101584.06
2023-02-06T00:48:39.280Z,101583.03
2023-02-06T00:51:06.674Z,101584.84
2023-02-06T00:53:34.261Z,101581.38
2023-02-06T00:56:01.831Z,101589.25
2023-02-06T00:58:28.975Z,101582.09
2023-02-06T01:00:56.465Z,101580.41
2023-02-06T01:03:24.148Z,101572.63
2023-02-06T01:05:51.544Z,101584.00
2023-02-06T01:08:18.927Z,101590.91
2023-02-06T01:10:46.684Z,101593.53
2023-02-06T01:13:14.158Z,101590.09
2023-02-06T01:15:42.248Z,101585.88
2023-02-06T01:18:09.519Z,101580.63
2023-02-06T01:20:37.168Z,101570.00
2023-02-06T01:23:04.502Z,101564.88
2023-02-06T01:25:32.494Z,101556.13
2023-02-06T01:27:59.625Z,101561.28
2023-02-06T01:30:27.519Z,101564.94
2023-02-06T01:32:55.944Z,101557.19
2023-02-06T01:35:23.309Z,101555.78
2023-02-06T01:37:50.524Z,101555.16
2023-02-06T01:40:19.139Z,101557.00
2023-02-06T01:42:46.576Z,101554.50
2023-02-06T01:45:36.563Z,101547.47
2023-02-06T01:48:11.726Z,101548.41
2023-02-06T01:50:43.825Z,101548.31
2023-02-06T01:53:14.827Z,101534.34
2023-02-06T01:55:45.819Z,101539.59
2023-02-06T01:58:26.139Z,101544.84
2023-02-06T02:00:54.842Z,101533.50
2023-02-06T02:03:22.424Z,101543.16
2023-02-06T02:05:53.888Z,101539.59
2023-02-06T02:08:31.704Z,101544.84
2023-02-06T02:11:02.264Z,101533.59
2023-02-06T02:13:31.977Z,101540.53
2023-02-06T02:16:22.751Z,101534.34
2023-02-06T02:19:11.075Z,101525.50
2023-02-06T02:22:23.554Z,101527.19
2023-02-06T02:25:26.455Z,101530.69
2023-02-06T02:27:59.847Z,101530.88
2023-02-06T02:30:51.418Z,101530.00
2023-02-06T02:33:42.408Z,101529.09
2023-02-06T02:36:21.634Z,101526.47
2023-02-06T02:39:18.056Z,101532.44
2023-02-06T02:42:03.884Z,101515.00
2023-02-06T02:44:57.366Z,101515.00
2023-02-06T02:47:32.347Z,101513.34
2023-02-06T02:50:03.436Z,101501.88
2023-02-06T02:52:30.573Z,101492.31
2023-02-06T02:54:57.932Z,101491.47
2023-02-06T02:57:31.430Z,101491.28
2023-02-06T03:00:02.710Z,101495.69
2023-02-06T03:02:38.067Z,101491.28
2023-02-06T03:05:11.386Z,101497.38
2023-02-06T03:08:15.519Z,101499.03
2023-02-06T03:11:19.820Z,101499.78
2023-02-06T03:14:00.340Z,101499.03
2023-02-06T03:16:41.531Z,101492.94
2023-02-06T03:19:29.466Z,101488.53
2023-02-06T03:21:57.275Z,101481.38
2023-02-06T03:24:31.882Z,101489.50
2023-02-06T03:27:03.562Z,101485.19
2023-02-06T03:29:36.923Z,101492.13
2023-02-06T03:32:29.784Z,101494.84
2023-02-06T03:35:23.451Z,101496.72
2023-02-06T03:37:51.383Z,101512.38
2023-02-06T03:40:19.213Z,101508.06
2023-02-06T03:42:58.602Z,101505.53
2023-02-06T03:45:30.992Z,101515.22
2023-02-06T03:48:03.697Z,101514.56
2023-02-06T03:50:34.717Z,101521.72
2023-02-06T03:53:05.319Z,101522.75
2023-02-06T03:55:32.594Z,101524.41
2023-02-06T03:58:10.030Z,101519.16
2023-02-06T04:00:41.247Z,101514.69
2023-02-06T04:03:11.233Z,101506.81
2023-02-06T04:05:39.041Z,101504.06
2023-02-06T04:08:06.722Z,101509.19
2023-02-06T04:10:34.197Z,101499.66
2023-02-06T04:13:01.634Z,101496.06
2023-02-06T04:15:28.891Z,101495.13
2023-02-06T04:18:01.503Z,101492.31
2023-02-06T04:20:30.075Z,101488.72
2023-02-06T04:22:59.354Z,101480.13
2023-02-06T04:25:26.735Z,101481.81
2023-02-06T04:27:54.230Z,101478.22
2023-02-06T04:30:21.694Z,101475.59
2023-02-06T04:32:49.021Z,101486.22
2023-02-06T04:35:16.119Z,101488.97
2023-02-06T04:37:43.581Z,101495.88
2023-02-06T04:40:11.865Z,101498.63
2023-02-06T04:42:39.293Z,101494.41
2023-02-06T04:45:07.027Z,101504.06
2023-02-06T04:47:34.360Z,101504.91
2023-02-06T04:50:03.353Z,101515.59
2023-02-06T04:52:31.776Z,101514.88
2023-02-06T04:54:58.991Z,101503.81
2023-02-06T04:57:26.831Z,101515.78
2023-02-06T04:59:53.955Z,101513.91
2023-02-06T05:02:21.262Z,101514.75
2023-02-06T05:04:48.737Z,101521.72
2023-02-06T05:07:16.726Z,101519.81
2023-02-06T05:09:43.844Z,101518.34
2023-02-06T05:12:13.914Z,101511.41
2023-02-06T05:14:41.552Z,101515.78
2023-02-06T05:17:09.037Z,101531.66
2023-02-06T05:19:36.224Z,101527.25
2023-02-06T05:22:03.587Z,101527.34
2023-02-06T05:24:30.771Z,101529.16
2023-02-06T05:26:58.390Z,101534.59
2023-02-06T05:29:26.351Z,101530.09
2023-02-06T05:31:53.868Z,101531.13
2023-02-06T05:34:21.138Z,101538.88
2023-02-06T05:36:48.563Z,101533.63
2023-02-06T05:39:15.720Z,101536.38
2023-02-06T05:41:43.044Z,101539.00
2023-02-06T05:44:11.028Z,101542.47
2023-02-06T05:46:38.625Z,101530.28
2023-02-06T05:49:06.253Z,101528.59
2023-02-06T05:51:33.636Z,101534.66
2023-02-06T05:54:00.828Z,101534.66
2023-02-06T05:56:28.273Z,101541.50
2023-02-06T05:58:55.425Z,101534.59
2023-02-06T06:01:22.869Z,101524.81
2023-02-06T06:03:50.068Z,101523.06
2023-02-06T06:06:17.735Z,101524.63
2023-02-06T06:08:44.905Z,101526.31
2023-02-06T06:11:12.276Z,101528.00
2023-02-06T06:13:39.624Z,101531.38
2023-02-06T06:16:07.237Z,101533.25
2023-02-06T06:18:34.547Z,101533.44
2023-02-06T06:21:04.540Z,101531.00
2023-02-06T06:23:31.726Z,101521.47
2023-02-06T06:25:59.031Z,101525.03
2023-02-06T06:28:26.641Z,101522.09
2023-02-06T06:31:04.041Z,101520.31
2023-02-06T06:33:31.705Z,101517.69
2023-02-06T06:35:59.399Z,101527.25
2023-02-06T06:38:26.875Z,101524.72
2023-02-06T06:40:54.419Z,101516.03
2023-02-06T06:43:21.664Z,101520.44
2023-02-06T06:45:49.228Z,101520.31
2023-02-06T06:48:16.548Z,101524.63
2023-02-06T06:50:43.970Z,101522.09
2023-02-06T06:53:11.212Z,101528.38
2023-02-06T06:55:38.711Z,101526.59
2023-02-06T06:58:05.934Z,101531.78
2023-02-06T07:00:33.395Z,101529.16
2023-02-06T07:03:01.073Z,101543.75
2023-02-06T07:05:29.277Z,101539.97
2023-02-06T07:07:56.438Z,101538.31
2023-02-06T07:10:23.986Z,101536.63
2023-02-06T07:12:53.447Z,101538.31
2023-02-06T07:15:21.185Z,101539.97
2023-02-06T07:17:48.675Z,101538.94
2023-02-06T07:20:16.619Z,101536.97
2023-02-06T07:22:43.945Z,101537.91
2023-02-06T07:25:11.580Z,101533.50
2023-02-06T07:27:38.692Z,101533.28
2023-02-06T07:30:06.880Z,101533.91
2023-02-06T07:32:37.217Z,101537.31
2023-02-06T07:35:30.015Z,101537.09
2023-02-06T07:37:57.455Z,101531.63
2023-02-06T07:40:27.683Z,101531.63
2023-02-06T07:42:58.888Z,101531.44
2023-02-06T07:45:34.273Z,101532.91
2023-02-06T07:48:05.263Z,101534.63
2023-02-06T07:50:33.329Z,101539.88
2023-02-06T07:53:00.828Z,101528.50
2023-02-06T07:55:28.132Z,101532.72
2023-02-06T07:57:55.912Z,101534.41
2023-02-06T08:00:23.327Z,101536.09
2023-02-06T08:02:51.699Z,101525.38
2023-02-06T08:05:19.369Z,101532.91
2023-02-06T08:07:47.061Z,101531.44
2023-02-06T08:10:14.219Z,101532.28
2023-02-06T08:12:42.869Z,101522.59
2023-02-06T08:15:10.170Z,101524.31
2023-02-06T08:17:37.572Z,101527.66
2023-02-06T08:20:05.157Z,101523.16
2023-02-06T08:22:32.620Z,101523.06
2023-02-06T08:25:00.241Z,101522.00
2023-02-06T08:27:27.663Z,101522.00
2023-02-06T08:29:54.917Z,101522.00
2023-02-06T08:32:22.407Z,101527.28
2023-02-06T08:34:49.558Z,101529.97
2023-02-06T08:37:17.396Z,101533.38
2023-02-06T08:39:44.622Z,101527.28
2023-02-06T08:42:12.563Z,101530.81
2023-02-06T08:44:39.741Z,101530.63
2023-02-06T08:47:10.467Z,101528.94
2023-02-06T08:49:38.519Z,101530.63
2023-02-06T08:52:05.981Z,101527.03
2023-02-06T08:54:36.014Z,101518.22
2023-02-06T08:57:06.581Z,101527.50
2023-02-06T08:59:34.773Z,101532.63
2023-02-06T09:02:02.166Z,101524.75
2023-02-06T09:04:37.291Z,101533.16
2023-02-06T09:07:04.830Z,101536.66
2023-02-06T09:09:31.987Z,101531.28
2023-02-06T09:12:04.056Z,101532.97
2023-02-06T09:14:31.912Z,101539.06
2023-02-06T09:16:59.328Z,101536.53
2023-02-06T09:19:27.208Z,101538.22
2023-02-06T09:21:55.147Z,101536.53
2023-02-06T09:24:22.715Z,101538.44
2023-02-06T09:26:59.417Z,101544.53
2023-02-06T09:29:31.356Z,101545.38
2023-02-06T09:31:59.685Z,101548.94
2023-02-06T09:34:28.103Z,101547.28
2023-02-06T09:36:56.729Z,101555.91
2023-02-06T09:39:24.677Z,101549.13
2023-02-06T09:41:56.900Z,101543.88
2023-02-06T09:44:36.975Z,101548.94
2023-02-06T09:47:32.363Z,101538.22
2023-02-06T09:50:27.648Z,101540.13
2023-02-06T09:53:54.701Z,101542.84
2023-02-06T09:57:05.805Z,101544.41
2023-02-06T09:59:56.229Z,101545.19
2023-02-06T10:03:11.525Z,101545.69
2023-02-06T10:05:57.010Z,101540.53
2023-02-06T10:09:02.085Z,101544.88
2023-02-06T10:11:47.916Z,101545.50
2023-02-06T10:14:37.342Z,101547.91
2023-02-06T10:17:15.847Z,101544.75
2023-02-06T10:20:02.990Z,101542.56
2023-02-06T10:22:55.458Z,101537.06
2023-02-06T10:25:34.783Z,101536.13
2023-02-06T10:28:24.391Z,101546.66
2023-02-06T10:31:04.028Z,101539.28
2023-02-06T10:34:03.670Z,101541.63
2023-02-06T10:37:17.552Z,101539.09
2023-02-06T10:40:04.545Z,101550.03
2023-02-06T10:43:01.846Z,101539.31
2023-02-06T10:45:44.291Z,101543.72
2023-02-06T10:48:46.256Z,101534.91
2023-02-06T10:51:42.294Z,101536.38
2023-02-06T10:54:22.031Z,101535.94
2023-02-06T10:56:52.576Z,101537.63
2023-02-06T10:59:45.428Z,101534.16
2023-02-06T11:02:20.261Z,101541.00
2023-02-06T11:05:16.696Z,101533.00
2023-02-06T11:07:51.614Z,101539.31
2023-02-06T11:10:26.007Z,101533.09
2023-02-06T11:13:21.857Z,101534.25
2023-02-06T11:16:12.843Z,101523.75
2023-02-06T11:18:45.321Z,101524.34
2023-02-06T11:21:15.744Z,101528.56
2023-02-06T11:23:43.178Z,101526.38
2023-02-06T11:26:19.088Z,101528.81
2023-02-06T11:28:56.726Z,101525.84
2023-02-06T11:31:46.380Z,101528.16
2023-02-06T11:34:23.577Z,101525.41
2023-02-06T11:37:01.356Z,101520.16
2023-02-06T11:39:37.085Z,101523.75
2023-02-06T11:42:24.780Z,101526.06
2023-02-06T11:44:53.770Z,101526.91
2023-02-06T11:47:37.875Z,101525.22
2023-02-06T11:50:14.871Z,101524.28
2023-02-06T11:52:46.975Z,101522.03
2023-02-06T11:55:30.244Z,101523.72
2023-02-06T11:58:12.078Z,101530.25
2023-02-06T12:01:04.684Z,101520.59
2023-02-06T12:03:35.071Z,101515.97
2023-02-06T12:06:13.920Z,101512.38
2023-02-06T12:08:49.093Z,101513.44
2023-02-06T12:11:49.736Z,101512.03
2023-02-06T12:14:54.352Z,101519.94
2023-02-06T12:18:03.831Z,101526.78
2023-02-06T12:21:01.378Z,101518.16
2023-02-06T12:23:58.021Z,101522.84
2023-02-06T12:26:31.667Z,101527.50
2023-02-06T12:29:15.124Z,101520.78
2023-02-06T12:32:20.911Z,101513.63
2023-02-06T12:35:02.296Z,101523.75
2023-02-06T12:37:50.913Z,101527.09
2023-02-06T12:40:26.970Z,101532.38
2023-02-06T12:43:04.762Z,101523.09
2023-02-06T12:46:23.617Z,101520.16
2023-02-06T12:49:30.241Z,101517.75
2023-02-06T12:52:21.567Z,101525.66
2023-02-06T12:55:18.612Z,101518.28
2023-02-06T12:57:46.608Z,101519.53
2023-02-06T13:00:50.480Z,101527.31
2023-02-06T13:03:27.091Z,101520.59
2023-02-06T13:06:14.851Z,101530.78
2023-02-06T13:08:58.370Z,101535.09
2023-02-06T13:11:38.931Z,101532.56
2023-02-06T13:14:29.521Z,101535.94
2023-02-06T13:17:07.871Z,101536.56
2023-02-06T13:19:40.952Z,101532.25
2023-02-06T13:22:11.277Z,101542.25
2023-02-06T13:24:41.236Z,101532.69
2023-02-06T13:27:08.368Z,101531.50
2023-02-06T13:29:43.851Z,101525.31
2023-02-06T13:32:21.620Z,101538.03
2023-02-06T13:34:49.296Z,101533.28
2023-02-06T13:37:45.912Z,101542.25
2023-02-06T13:40:24.307Z,101532.97
2023-02-06T13:43:13.780Z,101534.94
2023-02-06T13:46:05.262Z,101536.47
2023-02-06T13:49:23.923Z,101537.91
2023-02-06T13:52:33.345Z,101538.41
2023-02-06T13:55:44.819Z,101536.97
2023-02-06T13:58:47.578Z,101546.03
2023-02-06T14:05:06.340Z,101559.66
2023-02-06T14:08:29.594Z,101551.47
2023-02-06T14:11:36.319Z,101563.03
2023-02-06T14:14:44.158Z,101564.00
2023-02-06T14:17:30.585Z,101561.41
2023-02-06T14:20:29.742Z,101564.13
2023-02-06T14:23:18.779Z,101564.97
2023-02-06T14:26:29.386Z,101563.72
2023-02-06T14:29:34.395Z,101562.34
2023-02-06T14:32:50.729Z,101566.44
2023-02-06T14:36:10.646Z,101568.53
2023-02-06T14:38:57.188Z,101571.69
2023-02-06T14:41:30.913Z,101569.09
2023-02-06T14:43:59.751Z,101564.75
2023-02-06T14:46:28.855Z,101571.28
2023-02-06T14:48:59.895Z,101568.78
2023-02-06T14:51:36.459Z,101567.91
2023-02-06T14:54:30.417Z,101568.44
2023-02-06T14:57:02.236Z,101565.47
2023-02-06T14:59:31.604Z,101565.38
2023-02-06T15:02:14.319Z,101562.97
2023-02-06T15:04:48.350Z,101559.81
2023-02-06T15:07:35.830Z,101555.31
2023-02-06T15:10:15.895Z,101561.28
2023-02-06T15:12:53.464Z,101558.66
2023-02-06T15:15:28.215Z,101555.72
2023-02-06T15:18:06.425Z,101558.56
2023-02-06T15:20:44.308Z,101564.56
2023-02-06T15:24:05.405Z,101567.91
2023-02-06T15:27:21.078Z,101559.72
2023-02-06T15:29:52.901Z,101565.38
2023-02-06T15:32:26.705Z,101567.28
2023-02-06T15:34:54.622Z,101574.44
2023-02-06T15:37:36.338Z,101560.38
2023-02-06T15:40:18.802Z,101572.22
2023-02-06T15:42:48.820Z,101575.28
2023-02-06T15:45:24.701Z,101578.84
2023-02-06T15:47:54.871Z,101582.44
2023-02-06T15:50:28.379Z,101589.59
2023-02-06T15:52:56.865Z,101578.41
2023-02-06T15:55:36.049Z,101576.75
2023-02-06T15:58:05.639Z,101578.84
2023-02-06T16:00:36.983Z,101580.34
2023-02-06T16:03:16.027Z,101579.28
2023-02-06T16:05:44.526Z,101584.31
2023-02-06T16:08:29.255Z,101591.69
2023-02-06T16:11:28.330Z,101586.41
2023-02-06T16:13:57.652Z,101593.34
2023-02-06T16:16:28.239Z,101591.69
2023-02-06T16:18:58.548Z,101596.16
2023-02-06T16:21:32.519Z,101598.78
2023-02-06T16:24:00.180Z,101597.13
2023-02-06T16:26:42.061Z,101597.13
2023-02-06T16:29:09.514Z,101600.50
2023-02-06T16:31:43.511Z,101599.75
2023-02-06T16:34:43.385Z,101596.41
2023-02-06T16:37:17.358Z,101598.50
2023-02-06T16:39:46.501Z,101596.25
2023-02-06T16:42:32.658Z,101601.69
2023-02-06T16:45:07.335Z,101600.41
2023-02-06T16:47:34.569Z,101600.53
2023-02-06T16:50:02.149Z,101605.69
2023-02-06T16:52:32.965Z,101602.13
2023-02-06T16:55:01.643Z,101599.69
2023-02-06T16:57:43.316Z,101604.81
2023-02-06T17:00:31.116Z,101606.22
2023-02-06T17:02:59.422Z,101610.53
2023-02-06T17:05:29.310Z,101612.44
2023-02-06T17:07:56.850Z,101611.59
2023-02-06T17:10:26.912Z,101616.84
2023-02-06T17:12:54.432Z,101609.28
2023-02-06T17:15:21.911Z,101612.81
2023-02-06T17:17:49.468Z,101619.78
2023-02-06T17:20:36.653Z,101630.47
2023-02-06T17:23:05.376Z,101624.50
2023-02-06T17:25:33.543Z,101621.13
2023-02-06T17:28:01.426Z,101615.88
2023-02-06T17:30:29.118Z,101610.50
2023-02-06T17:32:56.552Z,101616.81
2023-02-06T17:35:23.981Z,101617.19
2023-02-06T17:37:52.181Z,101618.22
2023-02-06T17:40:27.615Z,101619.06
2023-02-06T17:42:56.369Z,101614.13
2023-02-06T17:45:25.154Z,101610.94
2023-02-06T17:47:53.313Z,101614.41
2023-02-06T17:50:24.646Z,101619.88
2023-02-06T17:52:55.424Z,101619.13
2023-02-06T17:55:24.992Z,101614.81
2023-02-06T17:57:53.224Z,101628.22
2023-02-06T18:00:23.603Z,101630.97
2023-02-06T18:02:53.697Z,101630.97
2023-02-06T18:05:23.140Z,101619.72
2023-02-06T18:07:51.846Z,101631.34
2023-02-06T18:10:22.233Z,101641.03
2023-02-06T18:12:49.741Z,101634.06
2023-02-06T18:15:17.766Z,101638.78
2023-02-06T18:17:45.146Z,101639.06
2023-02-06T18:20:13.376Z,101641.69
2023-02-06T18:22:41.269Z,101632.13
2023-02-06T18:25:15.018Z,101635.88
2023-02-06T18:27:45.849Z,101642.34
2023-02-06T18:30:14.924Z,101636.66
2023-02-06T18:32:42.575Z,101638.53
2023-02-06T18:35:10.974Z,101635.13
2023-02-06T18:37:38.467Z,101638.72
2023-02-06T18:40:06.598Z,101634.69
2023-02-06T18:42:53.453Z,101651.44
2023-02-06T18:45:24.669Z,101645.47
2023-02-06T18:47:52.298Z,101663.09
2023-02-06T18:50:21.853Z,101655.56
2023-02-06T18:52:49.996Z,101659.16
2023-02-06T18:55:17.571Z,101665.31
2023-02-06T18:57:45.579Z,101668.13
2023-02-06T19:00:16.874Z,101663.09
2023-02-06T19:02:44.315Z,101677.13
2023-02-06T19:05:12.139Z,101661.50
2023-02-06T19:07:39.741Z,101654.81
2023-02-06T19:10:10.490Z,101656.69
2023-02-06T19:12:39.140Z,101649.94
2023-02-06T19:15:07.940Z,101655.34
2023-02-06T19:17:35.491Z,101652.72
2023-02-06T19:20:04.860Z,101652.19
2023-02-06T19:22:35.275Z,101658.47
2023-02-06T19:25:05.048Z,101668.44
2023-02-06T19:27:32.444Z,101672.03
2023-02-06T19:29:59.824Z,101675.47
2023-02-06T19:32:28.871Z,101670.31
2023-02-06T19:34:57.750Z,101663.59
2023-02-06T19:37:25.269Z,101674.25
2023-02-06T19:39:52.762Z,101673.50
2023-02-06T19:42:19.952Z,101671.03
2023-02-06T19:44:53.915Z,101679.84
2023-02-06T19:47:22.104Z,101675.72
2023-02-06T19:49:54.895Z,101676.56
2023-02-06T19:52:22.064Z,101678.50
2023-02-06T19:54:49.647Z,101674.00
2023-02-06T19:57:19.341Z,101674.97
2023-02-06T19:59:46.973Z,101674.28
2023-02-06T20:02:15.898Z,101684.13
2023-02-06T20:04:45.205Z,101693.06
2023-02-06T20:07:12.615Z,101681.09
2023-02-06T20:09:41.813Z,101673.31
2023-02-06T20:12:12.559Z,101686.31
2023-02-06T20:14:40.184Z,101684.63
2023-02-06T20:17:07.457Z,101700.53
2023-02-06T20:19:35.092Z,101698.00
2023-02-06T20:22:03.273Z,101704.44
2023-02-06T20:24:32.863Z,101699.38
2023-02-06T20:27:05.669Z,101706.97
2023-02-06T20:29:37.647Z,101711.72
2023-02-06T20:32:07.193Z,101713.59
2023-02-06T20:34:35.595Z,101717.22
2023-02-06T20:37:03.969Z,101726.25
2023-02-06T20:39:32.077Z,101722.19
2023-02-06T20:41:59.505Z,101731.16
2023-02-06T20:44:28.828Z,101727.78
2023-02-06T20:46:56.138Z,101733.16
2023-02-06T20:49:27.576Z,101734.03
2023-02-06T20:51:55.815Z,101736.03
2023-02-06T20:54:25.043Z,101737.13
2023-02-06T20:56:52.521Z,101735.59
2023-02-06T20:59:20.919Z,101735.00
2023-02-06T21:01:48.781Z,101735.84
2023-02-06T21:04:17.948Z,101739.38
2023-02-06T21:06:48.421Z,101729.09
2023-02-06T21:09:17.677Z,101729.25
2023-02-06T21:11:49.932Z,101739.13
2023-02-06T21:14:19.256Z,101734.81
2023-02-06T21:16:47.579Z,101740.88
2023-02-06T21:19:19.233Z,101749.84
2023-02-06T21:21:47.076Z,101752.50
2023-02-06T21:24:16.901Z,101754.53
2023-02-06T21:26:44.653Z,101759.94
2023-02-06T21:29:14.984Z,101749.63
2023-02-06T21:31:43.784Z,101771.63
2023-02-06T21:34:25.769Z,101781.50
2023-02-06T21:36:54.612Z,101775.47
2023-02-06T21:39:26.935Z,101778.28
2023-02-06T21:41:54.782Z,101784.56
2023-02-06T21:44:24.533Z,101788.13
2023-02-06T21:46:52.881Z,101796.13
2023-02-06T21:49:21.109Z,101790.13
2023-02-06T21:51:48.639Z,101785.94
2023-02-06T21:54:16.986Z,101799.97
2023-02-06T21:56:44.837Z,101799.78
2023-02-06T21:59:13.037Z,101804.34
2023-02-06T22:01:41.187Z,101808.72
2023-02-06T22:04:23.358Z,101811.34
2023-02-06T22:06:50.846Z,101822.75
2023-02-06T22:09:20.063Z,101826.41
2023-02-06T22:11:47.678Z,101825.56
2023-02-06T22:14:17.918Z,101836.09
2023-02-06T22:16:48.423Z,101845.94
2023-02-06T22:19:16.864Z,101848.56
2023-02-06T22:21:45.075Z,101852.88
2023-02-06T22:24:13.405Z,101863.34
2023-02-06T22:26:41.438Z,101863.47
2023-02-06T22:29:14.283Z,101861.63
2023-02-06T22:31:45.629Z,101862.53
2023-02-06T22:34:20.767Z,101854.53
2023-02-06T22:36:50.968Z,101854.41
2023-02-06T22:39:19.296Z,101862.34
2023-02-06T22:41:47.548Z,101866.72
2023-02-06T22:44:17.291Z,101863.16
2023-02-06T22:46:52.447Z,101870.22
2023-02-06T22:49:21.764Z,101873.63
2023-02-06T22:51:48.966Z,101871.94
2023-02-06T22:54:17.044Z,101878.03
2023-02-06T22:56:44.955Z,101863.16
2023-02-06T22:59:23.654Z,101845.78
2023-02-06T23:01:58.670Z,101835.47
2023-02-06T23:04:30.769Z,101833.94
2023-02-06T23:06:58.373Z,101839.00
2023-02-06T23:09:36.257Z,101831.16
2023-02-06T23:12:04.548Z,101833.94
2023-02-06T23:14:33.541Z,101829.63
2023-02-06T23:17:01.965Z,101830.56
2023-02-06T23:19:29.971Z,101825.16
2023-02-06T23:21:57.237Z,101841.03
2023-02-06T23:24:25.023Z,101831.56
2023-02-06T23:26:54.379Z,101829.00
2023-02-06T23:29:24.203Z,101832.47
2023-02-06T23:31:51.863Z,101831.69
2023-02-06T23:34:23.675Z,101831.69
2023-02-06T23:36:52.306Z,101829.16
2023-02-06T23:39:20.109Z,101825.63
2023-02-06T23:41:47.485Z,101823.00
2023-02-06T23:44:15.417Z,101816.25
2023-02-06T23:46:42.704Z,101810.09
2023-02-06T23:49:10.428Z,101801.34
2023-02-06T23:51:38.692Z,101800.56
2023-02-06T23:54:07.922Z,101798.09
2023-02-06T23:56:35.795Z,101782.28
2023-02-06T23:59:04.834Z,101787.63
